createdAt,value
2022-11-15T00:07:01.792Z,101343.38
2022-11-15T00:25:43.275Z,101337.19
2022-11-15T00:34:11.540Z,101336.56
2022-11-15T00:43:09.266Z,101346.31
2022-11-15T00:51:12.237Z,101357.25
2022-11-15T01:00:29.910Z,101377.75
2022-11-15T01:08:27.416Z,101383.03
2022-11-15T01:12:17.171Z,101388.69
2022-11-15T01:16:52.354Z,101389.28
2022-11-15T01:20:41.895Z,101386.50
2022-11-15T01:24:02.843Z,101389.50
2022-11-15T01:27:46.302Z,101401.63
2022-11-15T01:31:38.502Z,101405.03
2022-11-15T01:40:47.484Z,101413.75
2022-11-15T01:44:38.481Z,101416.09
2022-11-15T01:48:28.004Z,101413.81
2022-11-15T01:51:49.170Z,101403.81
2022-11-15T01:55:20.901Z,101412.97
2022-11-15T01:59:00.430Z,101416.78
2022-11-15T02:06:49.663Z,101424.81
2022-11-15T02:20:49.543Z,101451.78
2022-11-15T02:24:32.848Z,101445.22
2022-11-15T02:28:17.032Z,101441.28
2022-11-15T02:32:12.536Z,101445.00
2022-11-15T02:35:59.896Z,101445.16
2022-11-15T02:39:52.381Z,101455.13
2022-11-15T02:43:42.021Z,101442.59
2022-11-15T02:47:35.762Z,101449.50
2022-11-15T02:51:04.193Z,101451.94
2022-11-15T02:54:52.869Z,101455.00
2022-11-15T02:58:37.285Z,101453.19
2022-11-15T03:02:17.497Z,101442.19
2022-11-15T03:06:14.934Z,101438.13
2022-11-15T03:10:19.166Z,101429.91
2022-11-15T03:14:38.015Z,101426.50
2022-11-15T03:18:27.103Z,101422.81
2022-11-15T03:22:22.851Z,101429.19
2022-11-15T03:25:58.745Z,101418.78
2022-11-15T03:29:48.410Z,101417.28
2022-11-15T03:37:08.069Z,101415.00
2022-11-15T03:40:30.991Z,101434.94
2022-11-15T03:43:58.818Z,101429.72
2022-11-15T03:47:22.880Z,101419.03
2022-11-15T03:55:32.358Z,101424.22
2022-11-15T03:59:14.979Z,101430.81
2022-11-15T04:02:36.899Z,101433.34
2022-11-15T04:06:05.723Z,101431.13
2022-11-15T04:09:36.121Z,101422.56
2022-11-15T04:13:00.314Z,101428.28
2022-11-15T04:16:33.810Z,101420.09
2022-11-15T04:20:16.994Z,101418.72
2022-11-15T04:27:28.354Z,101397.16
2022-11-15T04:30:46.215Z,101386.00
2022-11-15T04:34:31.411Z,101390.88
2022-11-15T04:37:49.128Z,101404.31
2022-11-15T04:41:13.307Z,101399.44
2022-11-15T04:44:45.050Z,101409.09
2022-11-15T04:48:05.254Z,101409.59
2022-11-15T04:51:31.335Z,101411.09
2022-11-15T04:55:07.747Z,101403.03
2022-11-15T04:58:44.985Z,101408.72
2022-11-15T05:03:18.500Z,101389.06
2022-11-15T05:06:48.809Z,101383.47
2022-11-15T05:10:05.643Z,101384.94
2022-11-15T05:13:18.727Z,101384.84
2022-11-15T05:16:56.200Z,101384.59
2022-11-15T05:20:23.968Z,101396.69
2022-11-15T05:23:43.830Z,101397.31
2022-11-15T05:27:02.001Z,101403.66
2022-11-15T05:37:29.227Z,101412.00
2022-11-15T05:40:58.671Z,101408.06
2022-11-15T05:58:48.014Z,101415.56
2022-11-15T06:02:04.769Z,101425.84
2022-11-15T06:06:30.111Z,101422.59
2022-11-15T06:09:42.664Z,101415.50
2022-11-15T06:13:02.211Z,101412.31
2022-11-15T06:16:16.972Z,101411.78
2022-11-15T06:19:47.598Z,101411.56
2022-11-15T06:22:57.149Z,101409.13
2022-11-15T06:27:55.938Z,101408.22
2022-11-15T06:31:04.508Z,101396.38
2022-11-15T06:33:55.351Z,101392.00
2022-11-15T06:36:47.320Z,101382.25
2022-11-15T06:39:37.002Z,101393.47
2022-11-15T06:42:28.889Z,101392.06
2022-11-15T06:45:25.080Z,101388.38
2022-11-15T06:48:17.387Z,101391.13
2022-11-15T06:51:10.824Z,101377.41
2022-11-15T06:54:03.445Z,101365.84
2022-11-15T06:56:54.782Z,101374.78
2022-11-15T06:59:44.224Z,101373.50
2022-11-15T07:02:35.433Z,101384.41
2022-11-15T07:05:29.330Z,101393.34
2022-11-15T07:08:21.006Z,101397.28
2022-11-15T07:11:11.245Z,101388.72
2022-11-15T07:14:04.166Z,101371.78
2022-11-15T07:17:05.548Z,101365.56
2022-11-15T07:19:59.890Z,101372.16
2022-11-15T07:22:49.674Z,101360.38
2022-11-15T07:25:40.813Z,101360.16
2022-11-15T07:28:35.409Z,101370.09
2022-11-15T07:31:33.033Z,101353.41
2022-11-15T07:34:22.997Z,101338.75
2022-11-15T07:37:13.386Z,101364.03
2022-11-15T07:40:05.852Z,101361.72
2022-11-15T07:43:03.540Z,101369.00
2022-11-15T07:45:59.123Z,101377.69
2022-11-15T07:48:48.758Z,101404.31
2022-11-15T07:51:36.802Z,101417.97
2022-11-15T07:54:32.992Z,101407.56
2022-11-15T07:57:24.666Z,101404.94
2022-11-15T08:00:13.718Z,101411.56
2022-11-15T08:03:13.939Z,101414.41
2022-11-15T08:06:03.409Z,101399.84
2022-11-15T08:08:57.501Z,101427.41
2022-11-15T08:11:48.882Z,101408.78
2022-11-15T08:14:40.631Z,101411.81
2022-11-15T08:17:35.255Z,101462.31
2022-11-15T08:20:24.302Z,101484.75
2022-11-15T08:23:20.103Z,101465.25
2022-11-15T08:26:19.969Z,101449.56
2022-11-15T08:29:12.192Z,101436.50
2022-11-15T08:32:06.587Z,101410.81
2022-11-15T08:34:59.829Z,101394.97
2022-11-15T08:37:50.060Z,101397.13
2022-11-15T08:40:44.567Z,101397.81
2022-11-15T08:43:48.286Z,101414.63
2022-11-15T08:46:41.245Z,101422.00
2022-11-15T08:49:33.770Z,101424.66
2022-11-15T08:52:30.532Z,101421.59
2022-11-15T08:55:24.851Z,101414.44
2022-11-15T08:58:20.367Z,101405.28
2022-11-15T09:01:18.645Z,101405.06
2022-11-15T09:04:09.040Z,101418.53
2022-11-15T09:07:03.996Z,101422.13
2022-11-15T09:09:55.848Z,101433.84
2022-11-15T09:12:47.223Z,101434.19
2022-11-15T09:15:38.364Z,101435.03
2022-11-15T09:18:36.454Z,101446.69
2022-11-15T09:21:28.702Z,101447.09
2022-11-15T09:24:18.922Z,101440.22
2022-11-15T09:27:08.251Z,101428.50
2022-11-15T09:30:12.055Z,101410.44
2022-11-15T09:33:04.621Z,101410.44
2022-11-15T09:35:56.081Z,101431.56
2022-11-15T09:38:52.893Z,101438.84
2022-11-15T09:42:12.284Z,101443.94
2022-11-15T09:45:35.447Z,101427.31
2022-11-15T09:49:08.274Z,101434.75
2022-11-15T09:52:05.030Z,101426.16
2022-11-15T09:54:56.533Z,101430.91
2022-11-15T09:57:43.455Z,101435.38
2022-11-15T10:00:52.307Z,101436.53
2022-11-15T10:03:40.944Z,101429.00
2022-11-15T10:06:46.976Z,101445.72
2022-11-15T10:09:48.219Z,101444.72
2022-11-15T10:12:23.123Z,101450.84
2022-11-15T10:15:06.895Z,101433.28
2022-11-15T10:18:19.155Z,101435.34
2022-11-15T10:21:08.471Z,101425.97
2022-11-15T10:23:42.922Z,101427.63
2022-11-15T10:26:20.590Z,101433.38
2022-11-15T10:29:01.272Z,101426.09
2022-11-15T10:31:34.991Z,101425.34
2022-11-15T10:34:20.093Z,101428.28
2022-11-15T10:37:04.855Z,101435.84
2022-11-15T10:39:39.312Z,101435.06
2022-11-15T10:42:40.592Z,101439.88
2022-11-15T10:45:48.824Z,101438.59
2022-11-15T10:48:33.034Z,101431.91
2022-11-15T10:55:43.555Z,101441.47
2022-11-15T10:58:52.331Z,101450.41
2022-11-15T11:01:49.065Z,101461.66
2022-11-15T11:04:24.626Z,101471.50
2022-11-15T11:07:22.701Z,101465.75
2022-11-15T11:10:02.169Z,101467.41
2022-11-15T11:12:37.879Z,101466.69
2022-11-15T11:15:15.183Z,101485.53
2022-11-15T11:18:01.432Z,101487.81
2022-11-15T11:20:53.497Z,101476.66
2022-11-15T11:23:41.683Z,101473.88
2022-11-15T11:26:19.096Z,101472.91
2022-11-15T11:29:07.025Z,101471.38
2022-11-15T11:31:52.529Z,101466.88
2022-11-15T11:34:21.888Z,101459.03
2022-11-15T11:37:23.894Z,101469.00
2022-11-15T11:40:16.472Z,101463.38
2022-11-15T11:43:06.895Z,101460.00
2022-11-15T11:45:42.265Z,101461.78
2022-11-15T11:48:44.945Z,101462.72
2022-11-15T11:51:39.723Z,101460.44
2022-11-15T11:59:41.446Z,101455.09
2022-11-15T12:02:44.509Z,101450.53
2022-11-15T12:05:33.315Z,101461.41
2022-11-15T12:08:32.807Z,101454.66
2022-11-15T12:11:32.434Z,101443.72
2022-11-15T12:14:10.855Z,101440.13
2022-11-15T12:16:45.856Z,101431.44
2022-11-15T12:19:18.850Z,101432.31
2022-11-15T12:22:10.113Z,101438.88
2022-11-15T12:24:46.870Z,101436.53
2022-11-15T12:27:44.839Z,101434.16
2022-11-15T12:30:19.470Z,101429.94
2022-11-15T12:33:08.095Z,101435.66
2022-11-15T12:35:44.787Z,101434.50
2022-11-15T12:38:59.767Z,101428.59
2022-11-15T12:41:43.056Z,101433.06
2022-11-15T12:44:38.516Z,101433.16
2022-11-15T12:47:11.029Z,101434.66
2022-11-15T12:49:40.491Z,101436.97
2022-11-15T12:52:13.110Z,101441.97
2022-11-15T12:54:43.773Z,101451.59
2022-11-15T12:57:19.753Z,101443.75
2022-11-15T13:00:07.750Z,101443.88
2022-11-15T13:02:51.520Z,101453.69
2022-11-15T13:05:22.458Z,101460.31
2022-11-15T13:08:09.350Z,101453.31
2022-11-15T13:10:44.738Z,101461.09
2022-11-15T13:13:54.230Z,101462.34
2022-11-15T13:16:48.215Z,101456.91
2022-11-15T13:19:28.260Z,101471.25
2022-11-15T13:22:20.665Z,101461.91
2022-11-15T13:24:52.366Z,101454.38
2022-11-15T13:27:23.544Z,101445.69
2022-11-15T13:29:55.156Z,101442.31
2022-11-15T13:32:54.935Z,101441.06
2022-11-15T13:35:36.563Z,101438.91
2022-11-15T13:38:08.333Z,101424.19
2022-11-15T13:40:40.857Z,101408.00
2022-11-15T13:43:42.100Z,101395.38
2022-11-15T13:46:28.589Z,101378.97
2022-11-15T13:49:11.258Z,101356.22
2022-11-15T13:51:44.946Z,101329.22
2022-11-15T13:54:18.706Z,101325.69
2022-11-15T13:57:29.108Z,101355.09
2022-11-15T14:00:34.932Z,101388.97
2022-11-15T14:03:24.337Z,101375.50
2022-11-15T14:06:54.438Z,101384.56
2022-11-15T14:10:05.042Z,101388.78
2022-11-15T14:13:06.154Z,101397.88
2022-11-15T14:15:42.929Z,101404.53
2022-11-15T14:18:44.639Z,101421.19
2022-11-15T14:21:16.540Z,101438.69
2022-11-15T14:23:47.405Z,101443.28
2022-11-15T14:26:36.462Z,101432.91
2022-11-15T14:29:25.970Z,101428.31
2022-11-15T14:32:21.670Z,101439.41
2022-11-15T14:35:06.228Z,101461.16
2022-11-15T14:37:36.752Z,101462.63
2022-11-15T14:40:46.629Z,101436.81
2022-11-15T14:43:16.611Z,101426.22
2022-11-15T14:45:46.843Z,101433.50
2022-11-15T14:48:16.479Z,101417.53
2022-11-15T14:50:47.276Z,101418.47
2022-11-15T14:53:19.102Z,101424.13
2022-11-15T14:55:50.309Z,101430.63
2022-11-15T14:58:23.268Z,101434.59
2022-11-15T15:01:00.987Z,101434.38
2022-11-15T15:03:34.014Z,101429.53
2022-11-15T15:06:04.625Z,101425.97
2022-11-15T15:08:37.605Z,101421.75
2022-11-15T15:11:24.785Z,101426.06
2022-11-15T15:14:40.529Z,101428.41
2022-11-15T15:32:15.773Z,101435.03
2022-11-15T15:39:50.493Z,101417.25
2022-11-15T15:42:36.669Z,101396.69
2022-11-15T15:53:48.694Z,101388.25
2022-11-15T15:57:48.929Z,101387.91
2022-11-15T16:04:08.803Z,101357.59
2022-11-15T16:14:33.459Z,101327.50
2022-11-15T16:31:49.236Z,101305.22
2022-11-15T16:35:41.166Z,101294.97
2022-11-15T16:48:33.289Z,101312.63
2022-11-15T16:54:52.191Z,101299.31
2022-11-15T16:57:35.262Z,101297.06
2022-11-15T17:14:53.061Z,101177.69
2022-11-15T17:18:12.524Z,101142.50
2022-11-15T17:21:36.296Z,101130.06
2022-11-15T17:49:39.433Z,101068.34
2022-11-15T17:52:21.492Z,101079.97
2022-11-15T17:55:36.847Z,101086.75
2022-11-15T18:03:21.169Z,101065.03
2022-11-15T18:07:01.149Z,101089.75
2022-11-15T18:13:31.923Z,101092.25
2022-11-15T18:29:21.174Z,101055.25
2022-11-15T18:35:40.918Z,101033.00
2022-11-15T18:38:11.527Z,101015.66
2022-11-15T18:40:44.099Z,100992.69
2022-11-15T18:43:15.282Z,100981.91
2022-11-15T18:45:48.267Z,100978.22
2022-11-15T18:48:17.054Z,100950.84
2022-11-15T18:50:50.435Z,100950.84
2022-11-15T18:53:48.020Z,100955.38
2022-11-15T18:56:21.951Z,100937.38
2022-11-15T18:59:02.575Z,100935.16
2022-11-15T19:01:40.313Z,100924.94
2022-11-15T19:04:48.750Z,100921.41
2022-11-15T19:12:19.534Z,100869.16
2022-11-15T19:19:16.539Z,100839.25
2022-11-15T19:21:56.727Z,100807.88
2022-11-15T19:24:36.494Z,100798.44
2022-11-15T19:27:09.193Z,100803.75
2022-11-15T19:29:43.840Z,100785.88
2022-11-15T19:32:15.617Z,100784.47
2022-11-15T19:34:47.762Z,100787.69
2022-11-15T19:37:45.311Z,100792.97
2022-11-15T19:40:19.042Z,100803.78
2022-11-15T19:42:51.451Z,100811.16
2022-11-15T19:45:24.684Z,100804.41
2022-11-15T19:48:11.638Z,100821.03
2022-11-15T19:50:43.126Z,100837.31
2022-11-15T19:53:15.997Z,100852.31
2022-11-15T19:56:02.669Z,100866.94
2022-11-15T19:59:03.710Z,100837.47
2022-11-15T20:02:13.497Z,100836.78
2022-11-15T20:05:15.552Z,100832.34
2022-11-15T20:07:52.140Z,100816.09
2022-11-15T20:10:48.834Z,100800.75
2022-11-15T20:13:24.478Z,100778.78
2022-11-15T20:16:51.443Z,100776.69
2022-11-15T20:33:08.734Z,100867.22
2022-11-15T20:48:12.605Z,100837.91
2022-11-15T20:50:46.821Z,100841.06
2022-11-15T20:53:39.366Z,100852.19
2022-11-15T20:56:19.508Z,100869.84
2022-11-15T20:58:53.153Z,100869.78
2022-11-15T21:01:33.127Z,100879.50
2022-11-15T21:04:05.018Z,100895.13
2022-11-15T21:06:36.499Z,100922.56
2022-11-15T21:09:32.026Z,100934.22
2022-11-15T21:12:17.037Z,100950.59
2022-11-15T21:20:04.627Z,100949.88
2022-11-15T21:27:08.674Z,100888.44
2022-11-15T21:31:39.980Z,100873.47
2022-11-15T21:34:31.280Z,100911.53
2022-11-15T21:37:39.602Z,100918.25
2022-11-15T21:40:23.510Z,100925.56
2022-11-15T21:43:12.133Z,100943.56
2022-11-15T21:54:11.255Z,100803.16
2022-11-15T21:56:54.886Z,100786.47
2022-11-15T22:00:21.350Z,100790.72
2022-11-15T22:03:07.011Z,100778.66
2022-11-15T22:09:07.937Z,100781.97
2022-11-15T22:11:53.171Z,100779.25
2022-11-15T22:14:52.515Z,100770.47
2022-11-15T22:17:23.042Z,100766.72
2022-11-15T22:20:17.059Z,100762.00
2022-11-15T22:23:00.317Z,100766.22
2022-11-15T22:29:07.329Z,100778.72
2022-11-15T22:31:39.063Z,100778.91
2022-11-15T22:34:11.493Z,100780.91
2022-11-15T22:37:18.389Z,100775.31
2022-11-15T22:39:40.767Z,100767.59
2022-11-15T22:42:34.959Z,100776.25
2022-11-15T22:45:07.771Z,100807.00
2022-11-15T22:47:40.555Z,100820.09
2022-11-15T22:50:21.315Z,100832.22
2022-11-15T22:53:02.814Z,100821.69
2022-11-15T22:55:36.717Z,100804.13
2022-11-15T23:01:45.358Z,100789.84
2022-11-15T23:04:23.406Z,100787.44
2022-11-15T23:06:55.356Z,100759.75
2022-11-15T23:09:35.716Z,100733.03
2022-11-15T23:12:25.243Z,100706.06
2022-11-15T23:15:04.810Z,100678.00
2022-11-15T23:17:39.970Z,100679.22
2022-11-15T23:20:41.467Z,100684.09
2022-11-15T23:23:07.094Z,100687.00
2022-11-15T23:25:37.187Z,100680.75
2022-11-15T23:28:33.563Z,100680.22
2022-11-15T23:31:31.530Z,100675.81
2022-11-15T23:34:05.359Z,100667.03
2022-11-15T23:36:44.432Z,100654.50
2022-11-15T23:39:16.554Z,100627.09
2022-11-15T23:41:55.552Z,100611.16
2022-11-15T23:44:46.996Z,100617.59
2022-11-15T23:47:32.996Z,100623.81
2022-11-15T23:50:11.140Z,100635.59
2022-11-15T23:53:11.110Z,100648.31
2022-11-15T23:56:06.281Z,100633.75
2022-11-15T23:58:39.672Z,100612.88
